createdAt,value
2018-09-22T00:01:00.209Z,13.60
2018-09-22T00:03:27.744Z,13.60
2018-09-22T00:05:55.336Z,13.50
2018-09-22T00:08:22.945Z,13.50
2018-09-22T00:10:50.571Z,13.50
2018-09-22T00:13:18.090Z,13.50
2018-09-22T00:15:45.671Z,13.40
2018-09-22T00:18:13.234Z,13.40
2018-09-22T00:20:40.827Z,13.40
2018-09-22T00:23:08.629Z,13.30
2018-09-22T00:25:36.232Z,13.30
2018-09-22T00:28:03.806Z,13.30
2018-09-22T00:30:31.413Z,13.20
2018-09-22T00:32:59.051Z,13.20
2018-09-22T00:35:26.721Z,13.10
2018-09-22T00:37:54.291Z,13.10
2018-09-22T00:40:21.889Z,13.10
2018-09-22T00:42:49.456Z,13.10
2018-09-22T00:45:17.022Z,13.00
2018-09-22T00:47:44.576Z,12.90
2018-09-22T00:50:12.245Z,12.90
2018-09-22T00:52:39.820Z,12.80
2018-09-22T00:55:07.469Z,12.80
2018-09-22T00:57:35.073Z,12.80
2018-09-22T01:00:02.687Z,12.70
2018-09-22T01:02:30.270Z,12.70
2018-09-22T01:04:57.919Z,12.70
2018-09-22T01:07:25.504Z,12.60
2018-09-22T01:09:53.031Z,12.60
2018-09-22T01:12:20.576Z,12.60
2018-09-22T01:14:48.133Z,12.50
2018-09-22T01:17:15.821Z,12.50
2018-09-22T01:19:43.377Z,12.40
2018-09-22T01:22:10.946Z,12.40
2018-09-22T01:24:38.504Z,12.40
2018-09-22T01:27:06.127Z,12.30
2018-09-22T01:29:33.678Z,12.30
2018-09-22T01:32:02.034Z,12.30
2018-09-22T01:34:29.569Z,12.30
2018-09-22T01:36:57.128Z,12.30
2018-09-22T01:39:24.704Z,12.30
2018-09-22T01:41:52.313Z,12.30
2018-09-22T01:44:19.861Z,12.30
2018-09-22T01:46:47.408Z,12.30
2018-09-22T01:49:15.608Z,12.40
2018-09-22T01:51:43.219Z,12.40
2018-09-22T01:54:10.801Z,12.40
2018-09-22T01:56:38.348Z,12.40
2018-09-22T01:59:05.921Z,12.40
2018-09-22T02:01:33.480Z,12.40
2018-09-22T02:04:01.045Z,12.50
2018-09-22T02:06:28.616Z,12.50
2018-09-22T02:08:56.165Z,12.50
2018-09-22T02:11:23.717Z,12.50
2018-09-22T02:13:51.261Z,12.50
2018-09-22T02:16:18.866Z,12.50
2018-09-22T02:18:46.400Z,12.50
2018-09-22T02:21:13.968Z,12.50
2018-09-22T02:23:41.499Z,12.50
2018-09-22T02:26:09.129Z,12.50
2018-09-22T02:28:36.659Z,12.50
2018-09-22T02:31:04.241Z,12.50
2018-09-22T02:33:32.966Z,12.50
2018-09-22T02:36:00.553Z,12.50
2018-09-22T02:38:28.100Z,12.50
2018-09-22T02:40:55.595Z,12.50
2018-09-22T02:43:23.200Z,12.40
2018-09-22T02:45:50.974Z,12.40
2018-09-22T02:48:18.530Z,12.30
2018-09-22T02:50:46.104Z,12.30
2018-09-22T02:53:13.649Z,12.20
2018-09-22T02:55:41.284Z,12.20
2018-09-22T02:58:09.276Z,12.10
2018-09-22T03:00:37.247Z,12.00
2018-09-22T03:03:05.095Z,12.00
2018-09-22T03:05:32.708Z,11.90
2018-09-22T03:08:00.258Z,11.90
2018-09-22T03:10:27.766Z,11.80
2018-09-22T03:12:55.360Z,11.80
2018-09-22T03:15:23.024Z,11.80
2018-09-22T03:17:50.530Z,11.70
2018-09-22T03:20:18.125Z,11.70
2018-09-22T03:22:45.649Z,11.70
2018-09-22T03:25:13.272Z,11.70
2018-09-22T03:27:40.826Z,11.70
2018-09-22T03:30:08.545Z,11.70
2018-09-22T03:32:36.076Z,11.70
2018-09-22T03:35:03.647Z,11.70
2018-09-22T03:37:31.260Z,11.70
2018-09-22T03:39:58.842Z,11.70
2018-09-22T03:42:26.384Z,11.60
2018-09-22T03:44:53.927Z,11.60
2018-09-22T03:47:21.451Z,11.60
2018-09-22T03:49:48.971Z,11.60
2018-09-22T03:52:16.560Z,11.60
2018-09-22T03:54:44.063Z,11.60
2018-09-22T03:57:11.745Z,11.50
2018-09-22T03:59:39.314Z,11.50
2018-09-22T04:02:06.865Z,11.50
2018-09-22T04:04:34.411Z,11.50
2018-09-22T04:07:01.916Z,11.50
2018-09-22T04:09:29.507Z,11.50
2018-09-22T04:11:57.027Z,11.60
2018-09-22T04:14:24.575Z,11.50
2018-09-22T04:16:52.124Z,11.50
2018-09-22T04:19:19.683Z,11.50
2018-09-22T04:21:47.314Z,11.50
2018-09-22T04:24:19.525Z,11.60
2018-09-22T04:26:48.793Z,11.50
2018-09-22T04:29:16.564Z,11.50
2018-09-22T04:31:44.109Z,11.60
2018-09-22T04:34:12.095Z,11.60
2018-09-22T04:36:39.664Z,11.60
2018-09-22T04:39:08.788Z,11.50
2018-09-22T04:41:37.494Z,11.50
2018-09-22T04:44:05.439Z,11.40
2018-09-22T04:46:33.073Z,11.40
2018-09-22T04:49:00.847Z,11.40
2018-09-22T04:51:28.798Z,11.40
2018-09-22T04:53:56.360Z,11.40
2018-09-22T04:56:23.944Z,11.40
2018-09-22T04:58:51.487Z,11.40
2018-09-22T05:01:19.030Z,11.40
2018-09-22T05:03:46.556Z,11.40
2018-09-22T05:06:14.140Z,11.40
2018-09-22T05:08:41.729Z,11.40
2018-09-22T05:11:09.368Z,11.40
2018-09-22T05:13:36.889Z,11.40
2018-09-22T05:16:04.513Z,11.40
2018-09-22T05:18:32.065Z,11.40
2018-09-22T05:20:59.690Z,11.50
2018-09-22T05:23:27.721Z,11.50
2018-09-22T05:25:55.282Z,11.50
2018-09-22T05:28:22.920Z,11.50
2018-09-22T05:30:50.691Z,11.60
2018-09-22T05:33:18.316Z,11.60
2018-09-22T05:35:45.928Z,11.60
2018-09-22T05:38:13.529Z,11.60
2018-09-22T05:40:41.083Z,11.70
2018-09-22T05:43:08.925Z,11.70
2018-09-22T05:45:36.474Z,11.70
2018-09-22T05:48:04.037Z,11.70
2018-09-22T05:50:31.643Z,11.80
2018-09-22T05:52:59.246Z,11.80
2018-09-22T05:55:26.826Z,11.80
2018-09-22T05:57:54.385Z,11.80
2018-09-22T06:00:22.012Z,11.90
2018-09-22T06:02:49.989Z,12.00
2018-09-22T06:05:17.568Z,12.00
2018-09-22T06:07:45.115Z,12.10
2018-09-22T06:10:12.690Z,12.10
2018-09-22T06:12:40.211Z,12.20
2018-09-22T06:15:08.011Z,12.30
2018-09-22T06:17:35.574Z,12.40
2018-09-22T06:20:03.239Z,12.50
2018-09-22T06:22:30.797Z,12.60
2018-09-22T06:24:58.513Z,12.60
2018-09-22T06:27:26.076Z,12.80
2018-09-22T06:29:53.628Z,12.90
2018-09-22T06:32:21.238Z,13.00
2018-09-22T06:34:48.824Z,13.10
2018-09-22T06:37:17.359Z,13.30
2018-09-22T06:39:46.259Z,13.50
2018-09-22T06:42:14.127Z,13.60
2018-09-22T06:44:42.588Z,13.80
2018-09-22T06:47:10.616Z,14.10
2018-09-22T06:49:38.255Z,14.30
2018-09-22T06:52:05.978Z,14.30
2018-09-22T06:54:33.540Z,14.50
2018-09-22T06:57:01.442Z,14.70
2018-09-22T06:59:29.058Z,14.90
2018-09-22T07:01:56.646Z,15.20
2018-09-22T07:04:24.262Z,15.50
2018-09-22T07:06:51.957Z,15.80
2018-09-22T07:09:19.599Z,16.20
2018-09-22T07:11:47.173Z,16.70
2018-09-22T07:14:14.785Z,17.30
2018-09-22T07:16:42.499Z,17.90
2018-09-22T07:19:10.203Z,18.60
2018-09-22T07:21:43.511Z,18.80
2018-09-22T07:24:11.108Z,19.10
2018-09-22T07:26:38.695Z,19.30
2018-09-22T07:29:06.332Z,19.10
2018-09-22T07:31:33.895Z,19.10
2018-09-22T07:34:01.501Z,19.00
2018-09-22T07:36:29.113Z,18.70
2018-09-22T07:38:56.651Z,18.50
2018-09-22T07:41:24.394Z,18.50
2018-09-22T07:43:52.126Z,18.60
2018-09-22T07:46:19.889Z,18.80
2018-09-22T07:48:47.493Z,19.00
2018-09-22T07:51:15.141Z,19.10
2018-09-22T07:53:42.847Z,19.30
2018-09-22T07:56:10.587Z,19.40
2018-09-22T07:58:38.268Z,19.30
2018-09-22T08:01:05.758Z,19.40
2018-09-22T08:03:33.372Z,19.10
2018-09-22T08:06:00.974Z,19.00
2018-09-22T08:08:28.690Z,19.10
2018-09-22T08:10:56.302Z,19.30
2018-09-22T08:13:24.221Z,19.50
2018-09-22T08:15:51.829Z,20.00
2018-09-22T08:18:19.488Z,20.50
2018-09-22T08:20:47.165Z,21.00
2018-09-22T08:23:14.764Z,21.30
2018-09-22T08:25:42.304Z,21.40
2018-09-22T08:28:09.954Z,21.60
2018-09-22T08:30:37.543Z,22.30
2018-09-22T08:33:05.236Z,23.00
2018-09-22T08:35:32.857Z,23.60
2018-09-22T08:38:00.479Z,24.10
2018-09-22T08:40:28.097Z,24.70
2018-09-22T08:42:55.682Z,25.50
2018-09-22T08:45:23.304Z,26.00
2018-09-22T08:47:50.965Z,26.20
2018-09-22T08:50:18.559Z,26.30
2018-09-22T08:52:46.203Z,26.10
2018-09-22T08:55:13.808Z,26.40
2018-09-22T08:57:41.489Z,26.90
2018-09-22T09:00:09.155Z,27.50
2018-09-22T09:02:36.781Z,27.80
2018-09-22T09:05:04.521Z,27.10
2018-09-22T09:07:32.035Z,26.80
2018-09-22T09:09:59.629Z,26.50
2018-09-22T09:12:27.336Z,26.20
2018-09-22T09:14:55.036Z,26.60
2018-09-22T09:17:22.641Z,26.30
2018-09-22T09:19:50.304Z,26.10
2018-09-22T09:22:18.033Z,26.30
2018-09-22T09:24:45.671Z,26.00
2018-09-22T09:27:13.379Z,26.10
2018-09-22T09:29:40.950Z,26.60
2018-09-22T09:32:10.144Z,26.80
2018-09-22T09:34:37.780Z,26.70
2018-09-22T09:37:05.480Z,26.80
2018-09-22T09:39:33.085Z,27.10
2018-09-22T09:42:00.801Z,27.10
2018-09-22T09:44:28.376Z,27.60
2018-09-22T09:46:55.949Z,27.30
2018-09-22T09:49:23.569Z,27.30
2018-09-22T09:51:51.152Z,27.30
2018-09-22T09:54:18.796Z,27.80
2018-09-22T09:56:46.437Z,28.30
2018-09-22T09:59:14.104Z,28.80
2018-09-22T10:01:41.892Z,28.30
2018-09-22T10:04:09.577Z,27.90
2018-09-22T10:06:37.139Z,28.20
2018-09-22T10:09:06.527Z,28.30
2018-09-22T10:11:34.135Z,27.80
2018-09-22T10:14:01.706Z,27.40
2018-09-22T10:16:29.305Z,27.10
2018-09-22T10:18:56.911Z,26.30
2018-09-22T10:21:24.523Z,25.90
2018-09-22T10:23:52.144Z,26.00
2018-09-22T10:26:19.802Z,26.00
2018-09-22T10:28:47.442Z,26.30
2018-09-22T10:31:14.964Z,26.90
2018-09-22T10:33:42.521Z,27.30
2018-09-22T10:36:10.170Z,28.50
2018-09-22T10:38:37.736Z,29.50
2018-09-22T10:41:05.499Z,29.90
2018-09-22T10:43:33.426Z,30.90
2018-09-22T10:46:01.004Z,31.00
2018-09-22T10:48:28.592Z,31.60
2018-09-22T10:50:56.149Z,32.40
2018-09-22T10:53:23.782Z,32.50
2018-09-22T10:55:51.384Z,32.40
2018-09-22T10:58:19.062Z,33.00
2018-09-22T11:00:46.774Z,32.80
2018-09-22T11:03:14.334Z,33.00
2018-09-22T11:05:41.903Z,33.90
2018-09-22T11:08:09.579Z,34.40
2018-09-22T11:10:37.155Z,35.50
2018-09-22T11:13:04.753Z,36.00
2018-09-22T11:15:32.357Z,35.40
2018-09-22T11:17:59.891Z,33.70
2018-09-22T11:20:27.514Z,33.20
2018-09-22T11:22:55.093Z,31.70
2018-09-22T11:25:22.656Z,30.80
2018-09-22T11:27:50.518Z,32.00
2018-09-22T11:30:18.180Z,33.50
2018-09-22T11:32:45.729Z,34.30
2018-09-22T11:35:15.332Z,36.40
2018-09-22T11:37:43.004Z,37.60
2018-09-22T11:40:10.545Z,38.50
2018-09-22T11:42:38.173Z,38.40
2018-09-22T11:45:05.841Z,38.60
2018-09-22T11:47:33.394Z,38.80
2018-09-22T11:50:00.893Z,39.20
2018-09-22T11:52:28.430Z,39.80
2018-09-22T11:54:55.948Z,40.80
2018-09-22T11:57:23.678Z,38.80
2018-09-22T11:59:51.270Z,37.50
2018-09-22T12:02:18.831Z,38.70
2018-09-22T12:04:46.423Z,38.70
2018-09-22T12:07:13.980Z,38.00
2018-09-22T12:09:41.782Z,39.20
2018-09-22T12:12:09.440Z,40.50
2018-09-22T12:14:36.970Z,40.70
2018-09-22T12:17:05.358Z,39.10
2018-09-22T12:19:32.952Z,36.90
2018-09-22T12:22:01.084Z,34.90
2018-09-22T12:24:28.682Z,32.50
2018-09-22T12:26:56.316Z,33.00
2018-09-22T12:29:23.820Z,33.20
2018-09-22T12:31:51.519Z,33.20
2018-09-22T12:34:19.104Z,32.50
2018-09-22T12:36:46.687Z,31.80
2018-09-22T12:39:14.299Z,32.00
2018-09-22T12:41:41.931Z,32.30
2018-09-22T12:44:09.642Z,34.10
2018-09-22T12:46:37.224Z,35.30
2018-09-22T12:49:04.950Z,36.80
2018-09-22T12:51:32.781Z,37.70
2018-09-22T12:54:00.340Z,37.90
2018-09-22T12:56:27.961Z,37.70
2018-09-22T12:58:55.563Z,37.70
2018-09-22T13:01:23.173Z,37.40
2018-09-22T13:03:51.054Z,36.70
2018-09-22T13:06:18.504Z,35.00
2018-09-22T13:08:46.103Z,35.20
2018-09-22T13:11:13.778Z,35.10
2018-09-22T13:13:41.384Z,35.40
2018-09-22T13:16:09.084Z,36.20
2018-09-22T13:18:36.714Z,37.20
2018-09-22T13:21:04.438Z,38.40
2018-09-22T13:23:31.979Z,39.00
2018-09-22T13:25:59.599Z,39.30
2018-09-22T13:28:27.224Z,39.30
2018-09-22T13:30:54.897Z,38.70
2018-09-22T13:33:22.458Z,38.40
2018-09-22T13:35:50.034Z,36.70
2018-09-22T13:38:17.632Z,34.50
2018-09-22T13:40:45.279Z,32.00
2018-09-22T13:43:12.870Z,30.90
2018-09-22T13:45:40.447Z,31.50
2018-09-22T13:48:08.091Z,32.20
2018-09-22T13:50:35.758Z,33.50
2018-09-22T13:53:03.374Z,34.30
2018-09-22T13:55:31.005Z,34.60
2018-09-22T13:57:58.643Z,34.90
2018-09-22T14:00:26.237Z,34.90
2018-09-22T14:02:53.791Z,34.60
2018-09-22T14:05:21.343Z,34.20
2018-09-22T14:07:48.909Z,33.40
2018-09-22T14:10:16.513Z,32.30
2018-09-22T14:12:44.035Z,32.00
2018-09-22T14:15:11.639Z,31.40
2018-09-22T14:17:39.210Z,30.90
2018-09-22T14:20:06.871Z,30.40
2018-09-22T14:22:34.441Z,30.40
2018-09-22T14:25:01.996Z,30.70
2018-09-22T14:27:29.619Z,31.10
2018-09-22T14:29:57.255Z,31.30
2018-09-22T14:32:24.869Z,30.50
2018-09-22T14:34:52.488Z,29.20
2018-09-22T14:37:20.113Z,28.20
2018-09-22T14:39:47.676Z,27.30
2018-09-22T14:42:15.382Z,26.80
2018-09-22T14:44:42.959Z,27.40
2018-09-22T14:47:10.615Z,28.20
2018-09-22T14:49:38.206Z,28.70
2018-09-22T14:52:05.960Z,29.30
2018-09-22T14:54:33.545Z,29.80
2018-09-22T14:57:01.063Z,29.80
2018-09-22T14:59:28.656Z,29.30
2018-09-22T15:01:56.256Z,28.50
2018-09-22T15:04:23.846Z,27.40
2018-09-22T15:06:51.455Z,26.20
2018-09-22T15:09:19.115Z,25.70
2018-09-22T15:11:46.693Z,25.30
2018-09-22T15:14:14.305Z,24.80
2018-09-22T15:16:41.926Z,24.40
2018-09-22T15:19:09.535Z,24.10
2018-09-22T15:21:37.236Z,23.80
2018-09-22T15:24:04.866Z,23.50
2018-09-22T15:26:32.523Z,23.30
2018-09-22T15:29:00.139Z,23.10
2018-09-22T15:31:27.797Z,22.90
2018-09-22T15:33:55.334Z,22.80
2018-09-22T15:36:22.968Z,22.60
2018-09-22T15:38:50.586Z,22.30
2018-09-22T15:41:18.168Z,22.20
2018-09-22T15:43:45.805Z,22.00
2018-09-22T15:46:13.396Z,21.80
2018-09-22T15:48:41.017Z,21.60
2018-09-22T15:51:08.889Z,21.50
2018-09-22T15:53:36.441Z,21.30
2018-09-22T15:56:04.038Z,21.10
2018-09-22T15:58:31.689Z,20.90
2018-09-22T16:00:59.425Z,20.70
2018-09-22T16:03:26.930Z,20.60
2018-09-22T16:05:54.549Z,20.50
2018-09-22T16:08:22.138Z,20.40
2018-09-22T16:10:49.749Z,20.20
2018-09-22T16:13:17.353Z,20.10
2018-09-22T16:15:44.947Z,20.00
2018-09-22T16:18:12.572Z,19.90
2018-09-22T16:20:40.212Z,19.80
2018-09-22T16:23:08.113Z,19.70
2018-09-22T16:25:35.776Z,19.60
2018-09-22T16:28:03.397Z,19.40
2018-09-22T16:30:30.973Z,19.30
2018-09-22T16:32:58.588Z,19.20
2018-09-22T16:35:26.170Z,19.10
2018-09-22T16:37:53.790Z,19.00
2018-09-22T16:40:21.363Z,18.80
2018-09-22T16:42:48.991Z,18.70
2018-09-22T16:45:16.625Z,18.60
2018-09-22T16:47:44.151Z,18.50
2018-09-22T16:50:18.533Z,18.40
2018-09-22T16:52:46.083Z,18.40
2018-09-22T16:55:13.872Z,18.40
2018-09-22T16:57:41.423Z,18.30
2018-09-22T17:00:09.169Z,18.30
2018-09-22T17:02:36.805Z,18.20
2018-09-22T17:05:04.445Z,18.20
2018-09-22T17:07:32.015Z,18.10
2018-09-22T17:09:59.633Z,18.10
2018-09-22T17:12:27.255Z,18.00
2018-09-22T17:14:54.939Z,17.90
2018-09-22T17:17:22.569Z,17.80
2018-09-22T17:19:50.196Z,17.80
2018-09-22T17:22:17.788Z,17.70
2018-09-22T17:24:45.392Z,17.70
2018-09-22T17:27:13.013Z,17.70
2018-09-22T17:29:40.607Z,17.60
2018-09-22T17:32:08.207Z,17.60
2018-09-22T17:34:35.832Z,17.50
2018-09-22T17:37:03.413Z,17.50
2018-09-22T17:39:30.997Z,17.50
2018-09-22T17:41:58.573Z,17.50
2018-09-22T17:44:26.229Z,17.50
2018-09-22T17:46:53.844Z,17.40
2018-09-22T17:49:21.408Z,17.40
2018-09-22T17:51:49.150Z,17.40
2018-09-22T17:54:16.703Z,17.40
2018-09-22T17:56:44.256Z,17.30
2018-09-22T17:59:11.881Z,17.30
2018-09-22T18:01:39.492Z,17.30
2018-09-22T18:04:07.059Z,17.20
2018-09-22T18:06:34.653Z,17.20
2018-09-22T18:09:02.307Z,17.20
2018-09-22T18:11:30.037Z,17.20
2018-09-22T18:13:57.615Z,17.20
2018-09-22T18:16:25.264Z,17.20
2018-09-22T18:18:52.932Z,17.20
2018-09-22T18:21:20.590Z,17.20
2018-09-22T18:23:48.153Z,17.20
2018-09-22T18:26:15.786Z,17.20
2018-09-22T18:28:43.341Z,17.10
2018-09-22T18:31:10.939Z,17.10
2018-09-22T18:33:38.615Z,17.10
2018-09-22T18:36:06.270Z,17.10
2018-09-22T18:38:33.823Z,17.00
2018-09-22T18:41:01.384Z,17.00
2018-09-22T18:43:29.029Z,17.00
2018-09-22T18:45:56.665Z,16.90
2018-09-22T18:48:24.218Z,16.90
2018-09-22T18:50:51.800Z,16.80
2018-09-22T18:53:19.415Z,16.70
2018-09-22T18:55:47.019Z,16.70
2018-09-22T18:58:14.696Z,16.60
2018-09-22T19:00:42.284Z,16.60
2018-09-22T19:03:09.968Z,16.50
2018-09-22T19:05:37.565Z,16.50
2018-09-22T19:08:06.504Z,16.50
2018-09-22T19:10:34.172Z,16.50
2018-09-22T19:13:02.870Z,16.50
2018-09-22T19:15:37.608Z,16.40
2018-09-22T19:18:17.435Z,16.40
2018-09-22T19:22:55.513Z,16.40
2018-09-22T19:25:25.233Z,16.30
2018-09-22T19:27:56.721Z,16.20
2018-09-22T19:30:30.184Z,16.10
2018-09-22T19:33:18.880Z,16.20
2018-09-22T19:36:06.432Z,16.10
2018-09-22T19:39:04.908Z,16.10
2018-09-22T19:41:39.105Z,16.10
2018-09-22T19:44:12.806Z,16.00
2018-09-22T19:46:44.915Z,16.00
2018-09-22T19:49:17.419Z,15.90
2018-09-22T19:51:50.723Z,15.90
2018-09-22T19:54:18.378Z,15.90
2018-09-22T19:56:46.120Z,15.90
2018-09-22T19:59:13.714Z,15.90
2018-09-22T20:01:41.473Z,15.90
2018-09-22T20:04:09.191Z,15.80
2018-09-22T20:06:36.808Z,15.80
2018-09-22T20:09:05.436Z,15.80
2018-09-22T20:11:33.066Z,15.80
2018-09-22T20:14:00.792Z,15.70
2018-09-22T20:16:28.546Z,15.70
2018-09-22T20:18:56.125Z,15.70
2018-09-22T20:21:23.945Z,15.70
2018-09-22T20:23:51.503Z,15.70
2018-09-22T20:26:19.088Z,15.60
2018-09-22T20:28:46.656Z,15.60
2018-09-22T20:31:14.357Z,15.50
2018-09-22T20:33:41.944Z,15.50
2018-09-22T20:36:09.585Z,15.50
2018-09-22T20:38:37.197Z,15.40
2018-09-22T20:41:04.818Z,15.40
2018-09-22T20:43:32.368Z,15.30
2018-09-22T20:45:59.965Z,15.30
2018-09-22T20:48:27.564Z,15.30
2018-09-22T20:50:55.252Z,15.30
2018-09-22T20:53:22.911Z,15.20
2018-09-22T20:55:50.477Z,15.10
2018-09-22T20:58:18.051Z,15.00
2018-09-22T21:00:45.631Z,15.00
2018-09-22T21:03:13.180Z,14.90
2018-09-22T21:05:40.755Z,14.90
2018-09-22T21:08:08.431Z,14.80
2018-09-22T21:10:35.980Z,14.80
2018-09-22T21:13:03.529Z,14.70
2018-09-22T21:15:31.101Z,14.70
2018-09-22T21:17:58.726Z,14.60
2018-09-22T21:20:26.349Z,14.60
2018-09-22T21:22:54.049Z,14.60
2018-09-22T21:25:21.683Z,14.50
2018-09-22T21:27:49.252Z,14.50
2018-09-22T21:30:16.898Z,14.50
2018-09-22T21:32:44.447Z,14.50
2018-09-22T21:35:12.077Z,14.40
2018-09-22T21:37:39.736Z,14.40
2018-09-22T21:40:07.323Z,14.30
2018-09-22T21:42:34.862Z,14.30
2018-09-22T21:45:02.478Z,14.30
2018-09-22T21:47:30.062Z,14.40
2018-09-22T21:49:57.645Z,14.40
2018-09-22T21:52:25.283Z,14.40
2018-09-22T21:54:52.973Z,14.50
2018-09-22T21:57:20.466Z,14.60
2018-09-22T21:59:48.041Z,14.50
2018-09-22T22:02:15.744Z,14.50
2018-09-22T22:04:43.304Z,14.50
2018-09-22T22:07:10.950Z,14.50
2018-09-22T22:09:38.544Z,14.50
2018-09-22T22:12:06.142Z,14.60
2018-09-22T22:14:33.686Z,14.60
2018-09-22T22:17:01.240Z,14.50
2018-09-22T22:19:28.839Z,14.60
2018-09-22T22:21:56.368Z,14.50
2018-09-22T22:24:23.926Z,14.50
2018-09-22T22:26:51.813Z,14.50
2018-09-22T22:29:19.397Z,14.50
2018-09-22T22:31:46.960Z,14.50
2018-09-22T22:34:14.895Z,14.50
2018-09-22T22:36:42.539Z,14.50
2018-09-22T22:39:10.235Z,14.50
2018-09-22T22:41:37.793Z,14.50
2018-09-22T22:44:05.450Z,14.50
2018-09-22T22:46:32.994Z,14.50
2018-09-22T22:49:00.668Z,14.50
2018-09-22T22:51:28.337Z,14.50
2018-09-22T22:53:55.914Z,14.50
2018-09-22T22:56:23.505Z,14.40
2018-09-22T22:58:51.094Z,14.40
2018-09-22T23:01:18.838Z,14.40
2018-09-22T23:03:46.429Z,14.40
2018-09-22T23:06:13.991Z,14.30
2018-09-22T23:08:41.530Z,14.30
2018-09-22T23:11:09.204Z,14.30
2018-09-22T23:13:36.822Z,14.30
2018-09-22T23:16:04.383Z,14.20
2018-09-22T23:18:31.942Z,14.10
2018-09-22T23:21:00.375Z,14.10
2018-09-22T23:23:28.063Z,14.00
2018-09-22T23:25:55.607Z,14.00
2018-09-22T23:28:23.229Z,14.00
2018-09-22T23:30:50.947Z,14.00
2018-09-22T23:33:18.549Z,14.00
2018-09-22T23:35:46.115Z,14.00
2018-09-22T23:38:13.672Z,14.00
2018-09-22T23:40:41.254Z,14.00
2018-09-22T23:43:08.812Z,13.90
2018-09-22T23:45:36.416Z,13.90
2018-09-22T23:48:04.009Z,14.00
2018-09-22T23:50:31.561Z,14.00
2018-09-22T23:52:59.164Z,14.00
2018-09-22T23:55:26.724Z,14.00
2018-09-22T23:57:54.285Z,14.00
